PWSweather.com
Personal Weather Stations
Station Observations
KCTHAMDEN
Dunbar Hill, Hamden, CT 06514

Dunbar HillHamden, CT 06514

Lat: 41.365437, Lon: -72.956532

Elevation: 200

Station Type: Davis Vantage Pro2+

Latest ConditionsUpdated 8:45:01 AM EDT Monday, Jun 24, 2019
Currently Today's Max Today's Min Today's Average
Temperature 74.3°F23.5°C 74.3°F23.5°C 60.3°F15.7°C 64.6°F18.1°C
Dew Point 62.7°F17.1°C 63.3°F17.4°C 53.3°F11.8°C 56.6°F13.7°C
Winds 2.4 mph E3.9 kmh E 2.4 mph -3.9 kmh - - 0.4 mph 0.6 kmh
Wind Gusts 6.0 mph9.7 kmh 6.0 mph9.7 kmh - -
Humidity 67% 87% 67% 75%
Pressure 29.88 in1011.9 mb 29.88 in1011.9 mb 29.85 in1010.8 mb -
Hour Temp Dew Point Humidity Winds Wind Gusts Pressure Precip Precip Rate Daily Precip Total
08:45 AM 74.3°F23.5°C 62.7°F17.1°C 67% 2.4 mph E3.9 kmh E 6.0 mph9.7 kmh 29.88 in1011.9 mb - 0.00 in0.0 mm 0.00 in0.0 mm
08:30 AM 72.4°F22.4°C 63.3°F17.4°C 73% 0.5 mph SW0.8 kmh SW 1.0 mph1.6 kmh 29.88 in1011.9 mb - 0.00 in0.0 mm 0.00 in0.0 mm
08:15 AM 70.5°F21.4°C 63.0°F17.2°C 77% 0.9 mph SW1.4 kmh SW 1.0 mph1.6 kmh 29.88 in1011.9 mb - 0.00 in0.0 mm 0.00 in0.0 mm
08:00 AM 68.5°F20.3°C 61.7°F16.5°C 79% 0.7 mph SW1.1 kmh SW 2.0 mph3.2 kmh 29.88 in1011.9 mb - 0.00 in0.0 mm 0.00 in0.0 mm
07:45 AM 66.5°F19.2°C 61.1°F16.2°C 83% Calm Calm -- 29.88 in1011.9 mb - 0.00 in0.0 mm 0.00 in0.0 mm
07:30 AM 63.9°F17.7°C 59.7°F15.4°C 86% Calm Calm -- 29.88 in1011.9 mb - 0.00 in0.0 mm 0.00 in0.0 mm
07:15 AM 61.3°F16.3°C 57.4°F14.1°C 87% Calm Calm -- 29.87 in1011.5 mb - 0.00 in0.0 mm 0.00 in0.0 mm
07:00 AM 60.3°F15.7°C 55.8°F13.2°C 85% Calm Calm -- 29.87 in1011.5 mb - 0.00 in0.0 mm 0.00 in0.0 mm
06:45 AM 60.3°F15.7°C 55.1°F12.8°C 83% Calm Calm -- 29.87 in1011.5 mb - 0.00 in0.0 mm 0.00 in0.0 mm
06:30 AM 60.7°F15.9°C 54.8°F12.7°C 81% Calm Calm -- 29.86 in1011.2 mb - 0.00 in0.0 mm 0.00 in0.0 mm
06:15 AM 61.2°F16.2°C 55.0°F12.8°C 80% Calm Calm -- 29.86 in1011.2 mb - 0.00 in0.0 mm 0.00 in0.0 mm
06:00 AM 61.7°F16.5°C 54.8°F12.7°C 78% Calm Calm 1.0 mph1.6 kmh 29.86 in1011.2 mb - 0.00 in0.0 mm 0.00 in0.0 mm
05:45 AM 62.3°F16.8°C 54.6°F12.6°C 76% 0.1 mph SW0.2 kmh SW -- 29.86 in1011.2 mb - 0.00 in0.0 mm 0.00 in0.0 mm
05:30 AM 62.7°F17.1°C 53.9°F12.2°C 73% Calm Calm 1.0 mph1.6 kmh 29.86 in1011.2 mb - 0.00 in0.0 mm 0.00 in0.0 mm
05:15 AM 63.0°F17.2°C 53.5°F11.9°C 71% 0.2 mph SW0.3 kmh SW 1.0 mph1.6 kmh 29.86 in1011.2 mb - 0.00 in0.0 mm 0.00 in0.0 mm
05:00 AM 63.2°F17.3°C 53.6°F12.0°C 71% 0.1 mph WSW0.2 kmh WSW -- 29.86 in1011.2 mb - 0.00 in0.0 mm 0.00 in0.0 mm
04:45 AM 63.3°F17.4°C 53.3°F11.8°C 70% 0.7 mph S1.1 kmh S 1.0 mph1.6 kmh 29.86 in1011.2 mb - 0.00 in0.0 mm 0.00 in0.0 mm
04:30 AM 63.6°F17.6°C 53.6°F12.0°C 70% 0.6 mph SSW1.0 kmh SSW 2.0 mph3.2 kmh 29.86 in1011.2 mb - 0.00 in0.0 mm 0.00 in0.0 mm
04:15 AM 64.1°F17.8°C 54.5°F12.5°C 71% 1.0 mph SW1.6 kmh SW 2.0 mph3.2 kmh 29.86 in1011.2 mb - 0.00 in0.0 mm 0.00 in0.0 mm
04:00 AM 64.3°F17.9°C 53.5°F11.9°C 68% 1.1 mph SW1.8 kmh SW 2.0 mph3.2 kmh 29.85 in1010.8 mb - 0.00 in0.0 mm 0.00 in0.0 mm
03:45 AM 64.6°F18.1°C 53.8°F12.1°C 68% 1.6 mph E2.6 kmh E 2.0 mph3.2 kmh 29.85 in1010.8 mb - 0.00 in0.0 mm 0.00 in0.0 mm
03:30 AM 64.9°F18.3°C 54.1°F12.3°C 68% 0.2 mph WSW0.3 kmh WSW 1.0 mph1.6 kmh 29.85 in1010.8 mb - 0.00 in0.0 mm 0.00 in0.0 mm
03:15 AM 64.9°F18.3°C 54.0°F12.2°C 68% 0.4 mph W0.6 kmh W 1.0 mph1.6 kmh 29.85 in1010.8 mb - 0.00 in0.0 mm 0.00 in0.0 mm
03:00 AM 64.3°F17.9°C 54.3°F12.4°C 70% 0.8 mph E1.3 kmh E 2.0 mph3.2 kmh 29.85 in1010.8 mb - 0.00 in0.0 mm 0.00 in0.0 mm
02:45 AM 64.1°F17.8°C 55.3°F12.9°C 73% 0.3 mph SW0.5 kmh SW 2.0 mph3.2 kmh 29.85 in1010.8 mb - 0.00 in0.0 mm 0.00 in0.0 mm
02:30 AM 64.1°F17.8°C 55.6°F13.1°C 74% Calm Calm 1.0 mph1.6 kmh 29.86 in1011.2 mb - 0.00 in0.0 mm 0.00 in0.0 mm
02:15 AM 63.9°F17.7°C 55.4°F13.0°C 74% 0.3 mph WSW0.5 kmh WSW 1.0 mph1.6 kmh 29.86 in1011.2 mb - 0.00 in0.0 mm 0.00 in0.0 mm
02:00 AM 63.2°F17.3°C 55.9°F13.3°C 77% 0.1 mph WSW0.2 kmh WSW 1.0 mph1.6 kmh 29.85 in1010.8 mb - 0.00 in0.0 mm 0.00 in0.0 mm
01:45 AM 62.9°F17.2°C 57.0°F13.9°C 81% 0.2 mph WSW0.3 kmh WSW 1.0 mph1.6 kmh 29.85 in1010.8 mb - 0.00 in0.0 mm 0.00 in0.0 mm
01:30 AM 63.5°F17.5°C 57.9°F14.4°C 82% Calm Calm 1.0 mph1.6 kmh 29.85 in1010.8 mb - 0.00 in0.0 mm 0.00 in0.0 mm
01:15 AM 64.3°F17.9°C 58.0°F14.4°C 80% Calm Calm -- 29.86 in1011.2 mb - 0.00 in0.0 mm 0.00 in0.0 mm
01:00 AM 65.1°F18.4°C 58.4°F14.7°C 79% Calm Calm -- 29.86 in1011.2 mb - 0.00 in0.0 mm 0.00 in0.0 mm
12:45 AM 65.9°F18.8°C 58.5°F14.7°C 77% 1.1 mph E1.8 kmh E 2.0 mph3.2 kmh 29.87 in1011.5 mb - 0.00 in0.0 mm 0.00 in0.0 mm
12:30 AM 66.7°F19.3°C 57.8°F14.3°C 73% Calm Calm -- 29.86 in1011.2 mb - 0.00 in0.0 mm 0.00 in0.0 mm
12:15 AM 67.7°F19.8°C 58.7°F14.8°C 73% 0.8 mph E1.3 kmh E 2.0 mph3.2 kmh 29.86 in1011.2 mb - 0.00 in0.0 mm 0.00 in0.0 mm
12:00 AM 68.5°F20.3°C 58.3°F14.6°C 70% 0.9 mph E1.4 kmh E 1.0 mph1.6 kmh 29.86 in1011.2 mb - 0.00 in0.0 mm 0.00 in0.0 mm